Time;durP1;ratioP1;P1;durP2;ratioP2;P2;SDS_P1;SDS_P2;PMS_P1;PMS_P2;Temp;Humidity;BMP_temperature;BMP_pressure;BME280_temperature;BME280_humidity;BME280_pressure;Samples;Min_cycle;Max_cycle;Signal;HPM_P1;HPM_P2
2021/08/04 00:00:21;;;;;;;9.63;6.65;;;;;;;13.16;83.49;101538.06;5049967;28;20053;-64
2021/08/04 00:02:46;;;;;;;10.35;6.43;;;;;;;13.15;83.54;101538.97;5051261;28;20082;-62
2021/08/04 00:05:12;;;;;;;10.02;6.57;;;;;;;13.16;83.41;101538.06;5051348;28;20116;-62
2021/08/04 00:07:37;;;;;;;11.68;7.95;;;;;;;13.16;83.69;101531.84;5052138;28;20040;-62
2021/08/04 00:10:04;;;;;;;12.60;7.38;;;;;;;13.16;83.59;101537.16;5054694;28;20090;-62
2021/08/04 00:12:29;;;;;;;12.32;7.47;;;;;;;13.17;83.77;101531.81;5054675;28;20044;-70
2021/08/04 00:14:54;;;;;;;12.18;7.53;;;;;;;13.19;83.68;101526.41;5055452;28;20033;-62
2021/08/04 00:17:19;;;;;;;10.75;7.30;;;;;;;13.21;83.48;101532.50;5055412;28;20028;-62
2021/08/04 00:19:45;;;;;;;11.90;7.90;;;;;;;13.20;83.94;101536.13;5055010;28;20554;-62
2021/08/04 00:22:10;;;;;;;9.40;7.00;;;;;;;13.21;83.55;101535.16;5055011;28;20029;-62
2021/08/04 00:24:35;;;;;;;11.48;8.30;;;;;;;13.22;83.90;101531.59;5055284;28;20029;-62
2021/08/04 00:27:01;;;;;;;11.25;7.78;;;;;;;13.28;83.86;101536.63;5055115;28;20036;-62
2021/08/04 00:29:26;;;;;;;11.70;8.00;;;;;;;13.30;83.76;101539.22;5055225;28;20106;-62
2021/08/04 00:31:51;;;;;;;13.45;8.55;;;;;;;13.32;83.89;101532.03;5055079;28;20399;-61
2021/08/04 00:34:17;;;;;;;11.48;7.63;;;;;;;13.34;83.63;101531.03;5059116;28;20539;-62
2021/08/04 00:36:42;;;;;;;14.85;9.02;;;;;;;13.34;84.18;101527.50;5074972;28;20202;-62
2021/08/04 00:39:07;;;;;;;12.95;8.85;;;;;;;13.33;84.22;101533.78;5074808;28;20085;-62
2021/08/04 00:41:40;;;;;;;11.80;8.23;;;;;;;13.31;84.13;101531.16;5065542;28;20107;-62
2021/08/04 00:44:06;;;;;;;13.10;8.82;;;;;;;13.28;84.28;101526.84;5054366;28;20025;-68
2021/08/04 00:46:32;;;;;;;13.13;9.32;;;;;;;13.26;84.02;101527.84;5054847;28;20029;-61
2021/08/04 00:48:57;;;;;;;14.20;9.60;;;;;;;13.20;83.99;101528.16;5054657;28;20100;-61
2021/08/04 00:51:23;;;;;;;12.73;8.82;;;;;;;13.15;84.18;101523.03;5054254;28;20029;-71
2021/08/04 00:53:48;;;;;;;12.70;8.90;;;;;;;13.09;84.20;101526.84;5054528;28;20032;-62
2021/08/04 00:56:14;;;;;;;11.63;8.20;;;;;;;13.07;84.36;101531.34;5054182;28;20025;-62
2021/08/04 00:58:41;;;;;;;12.38;8.43;;;;;;;13.00;84.75;101537.84;5054709;28;20041;-62
2021/08/04 01:01:48;;;;;;;14.13;9.98;;;;;;;12.96;84.53;101538.94;5054483;28;20055;-61
2021/08/04 01:04:22;;;;;;;12.85;9.00;;;;;;;12.92;84.77;101542.66;4986323;28;20170;-61
2021/08/04 01:07:21;;;;;;;14.35;8.88;;;;;;;12.90;85.04;101536.53;4992676;28;20030;-61
2021/08/04 01:09:54;;;;;;;13.35;8.23;;;;;;;12.88;85.18;101541.06;4992615;28;20042;-65
2021/08/04 01:12:30;;;;;;;16.25;9.75;;;;;;;12.88;85.23;101535.75;4992987;28;20476;-67
2021/08/04 01:15:04;;;;;;;14.25;9.27;;;;;;;12.86;85.01;101541.09;4992558;28;20042;-70
2021/08/04 01:17:30;;;;;;;13.68;10.05;;;;;;;12.83;85.51;101546.56;4973356;28;20035;-61
2021/08/04 01:20:07;;;;;;;15.00;9.25;;;;;;;12.81;85.47;101528.97;4972720;28;20109;-61
2021/08/04 01:22:49;;;;;;;15.35;10.50;;;;;;;12.79;85.60;101537.00;4973154;28;20090;-62
2021/08/04 01:25:17;;;;;;;14.85;9.55;;;;;;;12.81;85.63;101539.59;4990913;28;20038;-67
2021/08/04 01:27:53;;;;;;;14.13;9.35;;;;;;;12.81;85.52;101544.91;4992439;28;20047;-61
2021/08/04 01:30:20;;;;;;;15.65;9.68;;;;;;;12.79;85.60;101531.69;4992642;28;20036;-70
2021/08/04 01:32:46;;;;;;;12.68;9.35;;;;;;;12.81;85.33;101542.25;4976258;28;20407;-63
2021/08/04 01:35:12;;;;;;;13.05;9.13;;;;;;;12.83;85.80;101538.59;4992515;28;20519;-62
2021/08/04 01:37:40;;;;;;;14.70;10.07;;;;;;;12.86;85.96;101535.78;4991464;28;20057;-61
2021/08/04 01:40:07;;;;;;;16.80;9.93;;;;;;;12.88;85.88;101536.59;5013717;28;20362;-61
2021/08/04 01:42:36;;;;;;;17.67;9.65;;;;;;;12.90;85.63;101536.53;5053573;28;20030;-67
2021/08/04 01:45:03;;;;;;;17.25;10.05;;;;;;;12.91;85.54;101536.47;5052981;28;20471;-62
2021/08/04 01:47:31;;;;;;;14.50;9.93;;;;;;;12.92;85.52;101530.22;5053155;28;20055;-63
2021/08/04 01:49:57;;;;;;;15.85;9.98;;;;;;;12.95;85.39;101542.50;5053525;28;20543;-63
2021/08/04 01:52:24;;;;;;;15.05;9.82;;;;;;;12.99;85.40;101533.47;5053363;28;20041;-62
2021/08/04 01:54:50;;;;;;;14.10;9.55;;;;;;;13.06;85.15;101526.94;5052656;28;20033;-62
2021/08/04 01:57:16;;;;;;;13.23;9.95;;;;;;;13.11;84.99;101540.91;5052650;28;20056;-66
2021/08/04 01:59:43;;;;;;;12.50;9.30;;;;;;;13.16;84.95;101534.50;5053311;28;20139;-62
2021/08/04 02:02:18;;;;;;;13.07;9.52;;;;;;;13.20;85.13;101538.78;5053114;28;20037;-62
2021/08/04 02:04:44;;;;;;;14.57;9.38;;;;;;;13.24;85.60;101537.72;5053484;28;20017;-61
2021/08/04 02:07:16;;;;;;;12.85;8.80;;;;;;;13.27;84.97;101534.91;5052691;28;20114;-67
2021/08/04 02:09:55;;;;;;;14.43;9.77;;;;;;;13.29;85.05;101530.38;5033343;28;20022;-62
2021/08/04 02:12:21;;;;;;;13.50;9.25;;;;;;;13.30;85.09;101539.22;5032782;28;20515;-63
2021/08/04 02:15:05;;;;;;;15.30;9.38;;;;;;;13.26;85.43;101531.38;5033520;28;20021;-62
2021/08/04 02:17:46;;;;;;;15.25;10.30;;;;;;;13.22;85.52;101527.16;5043718;28;20028;-67
2021/08/04 02:20:28;;;;;;;15.52;10.25;;;;;;;13.17;85.53;101531.81;5053080;28;20074;-63
2021/08/04 02:23:07;;;;;;;13.77;10.05;;;;;;;13.17;85.90;101528.28;5053058;28;20025;-71
2021/08/04 02:25:54;;;;;;;16.30;10.38;;;;;;;13.11;85.65;101532.94;5052876;28;20020;-61
2021/08/04 02:28:23;;;;;;;12.80;9.05;;;;;;;13.07;85.40;101526.03;5052245;28;20107;-71
2021/08/04 02:30:51;;;;;;;14.45;9.02;;;;;;;13.00;85.71;101516.59;5050683;28;20029;-62
2021/08/04 02:33:18;;;;;;;13.20;8.70;;;;;;;12.99;85.69;101512.19;5052527;28;20028;-62
2021/08/04 02:35:44;;;;;;;15.05;9.05;;;;;;;12.98;85.88;101520.25;5053064;28;20025;-62
2021/08/04 02:38:09;;;;;;;11.38;8.50;;;;;;;12.95;85.93;101519.47;5052273;28;20328;-71
2021/08/04 02:40:35;;;;;;;13.13;8.35;;;;;;;12.91;86.15;101515.19;5052399;28;20033;-62
2021/08/04 02:43:01;;;;;;;13.18;9.18;;;;;;;12.86;86.04;101519.84;5052221;28;20033;-62
2021/08/04 02:45:27;;;;;;;14.77;9.00;;;;;;;12.84;86.20;101515.53;5052778;28;20075;-62
2021/08/04 02:47:54;;;;;;;14.65;8.82;;;;;;;12.78;86.47;101520.19;5052215;28;20033;-62
2021/08/04 02:50:19;;;;;;;13.25;8.57;;;;;;;12.73;86.76;101510.69;5052177;28;20047;-62
2021/08/04 02:52:46;;;;;;;12.55;9.00;;;;;;;12.70;87.03;101513.47;5052327;28;20083;-63
2021/08/04 02:55:12;;;;;;;14.95;9.40;;;;;;;12.68;87.12;101512.69;5052708;28;20032;-63
2021/08/04 02:57:37;;;;;;;13.45;9.38;;;;;;;12.65;87.13;101507.47;5052117;28;20021;-62
2021/08/04 03:00:03;;;;;;;16.00;9.60;;;;;;;12.61;87.41;101512.09;5051638;28;20037;-62
2021/08/04 03:02:29;;;;;;;14.02;8.52;;;;;;;12.59;87.35;101504.16;5052271;28;20060;-62
2021/08/04 03:04:54;;;;;;;12.70;8.55;;;;;;;12.57;87.49;101507.81;5052213;28;20135;-63
2021/08/04 03:07:19;;;;;;;12.45;8.40;;;;;;;12.53;87.45;101507.09;5052044;28;20405;-63
2021/08/04 03:09:45;;;;;;;15.25;8.77;;;;;;;12.51;87.32;101497.47;5051948;28;20037;-63
2021/08/04 03:12:10;;;;;;;13.85;9.13;;;;;;;12.49;87.64;101504.63;5051164;28;20037;-62
2021/08/04 03:14:35;;;;;;;16.27;9.27;;;;;;;12.47;87.90;101502.03;5051907;28;20027;-63
2021/08/04 03:17:01;;;;;;;15.68;8.93;;;;;;;12.46;87.99;101505.63;5052056;28;20028;-63
2021/08/04 03:19:26;;;;;;;15.00;9.77;;;;;;;12.47;88.62;101507.34;5052402;28;20600;-62
2021/08/04 03:21:51;;;;;;;14.07;8.65;;;;;;;12.48;88.40;101506.44;5051032;28;20036;-62
2021/08/04 03:24:17;;;;;;;12.45;8.30;;;;;;;12.49;88.33;101496.66;5051751;28;20096;-63
2021/08/04 03:26:42;;;;;;;14.07;8.55;;;;;;;12.49;87.81;101504.63;5051710;28;20029;-62
2021/08/04 03:29:07;;;;;;;15.00;8.00;;;;;;;12.43;87.85;101506.63;5051557;28;20028;-62
2021/08/04 03:31:33;;;;;;;13.63;8.52;;;;;;;12.40;87.67;101508.53;5051090;28;20037;-64
2021/08/04 03:33:58;;;;;;;16.80;9.43;;;;;;;12.38;87.81;101505.06;5051911;28;20029;-62
2021/08/04 03:36:25;;;;;;;13.70;8.23;;;;;;;12.36;87.86;101499.81;5051899;28;20028;-63
2021/08/04 03:38:50;;;;;;;15.80;8.55;;;;;;;12.35;88.06;101494.59;5052129;28;20071;-63
2021/08/04 03:41:15;;;;;;;14.73;9.63;;;;;;;12.32;88.14;101494.72;5051622;28;20021;-70
2021/08/04 03:43:41;;;;;;;14.88;8.80;;;;;;;12.30;88.32;101502.72;5053804;28;20165;-62
2021/08/04 03:46:06;;;;;;;16.92;8.93;;;;;;;12.28;88.27;101502.81;5055678;28;20028;-63
2021/08/04 03:48:31;;;;;;;12.75;8.50;;;;;;;12.26;88.52;101514.41;5055694;28;20419;-62
2021/08/04 03:50:57;;;;;;;13.68;8.45;;;;;;;12.26;88.14;101511.75;5055704;28;20355;-63
2021/08/04 03:53:22;;;;;;;13.93;8.90;;;;;;;12.23;88.58;101507.44;5054587;28;20390;-62
2021/08/04 03:55:47;;;;;;;15.23;8.75;;;;;;;12.22;88.02;101500.41;5055632;28;20037;-63
2021/08/04 03:58:13;;;;;;;15.50;8.70;;;;;;;12.18;88.34;101501.44;5055599;28;20033;-63
2021/08/04 04:00:38;;;;;;;16.15;9.25;;;;;;;12.15;88.47;101498.94;5054920;28;20499;-62
2021/08/04 04:03:03;;;;;;;14.65;9.02;;;;;;;12.14;88.76;101505.16;5054647;28;20029;-65
2021/08/04 04:05:29;;;;;;;15.18;9.25;;;;;;;12.14;88.62;101507.81;5054841;28;20021;-71
2021/08/04 04:07:54;;;;;;;16.52;9.40;;;;;;;12.14;88.21;101515.78;5055379;28;20497;-62
2021/08/04 04:10:19;;;;;;;15.10;9.45;;;;;;;12.14;88.53;101513.13;5055074;28;20416;-62
2021/08/04 04:12:45;;;;;;;14.68;8.95;;;;;;;12.13;88.49;101511.41;5054825;28;20057;-65
2021/08/04 04:15:11;;;;;;;16.17;9.77;;;;;;;12.14;88.39;101507.81;5054751;28;20657;-62
2021/08/04 04:17:36;;;;;;;14.75;8.80;;;;;;;12.16;89.05;101515.72;5055467;28;20120;-62
2021/08/04 04:20:02;;;;;;;15.57;9.35;;;;;;;12.21;88.80;101516.41;5055346;28;20060;-62
2021/08/04 04:22:27;;;;;;;14.35;8.23;;;;;;;12.22;88.16;101518.97;5055274;28;20031;-62
2021/08/04 04:24:53;;;;;;;13.75;8.77;;;;;;;12.19;88.06;101527.09;5053989;28;20039;-62
2021/08/04 04:27:18;;;;;;;12.23;8.25;;;;;;;12.20;88.40;101525.28;5054988;28;20021;-61
2021/08/04 04:29:43;;;;;;;13.65;8.93;;;;;;;12.21;88.43;101530.56;5055245;28;20091;-62
2021/08/04 04:32:09;;;;;;;15.32;9.20;;;;;;;12.21;88.65;101533.22;5054844;28;20028;-62
2021/08/04 04:34:35;;;;;;;12.93;8.88;;;;;;;12.24;88.67;101530.41;5054826;28;20061;-63
2021/08/04 04:37:00;;;;;;;12.43;8.55;;;;;;;12.29;88.53;101530.25;5055023;28;20108;-63
2021/08/04 04:39:26;;;;;;;14.95;9.27;;;;;;;12.34;88.00;101527.38;5054298;28;20434;-73
2021/08/04 04:41:52;;;;;;;12.18;8.20;;;;;;;12.35;88.16;101534.41;5054741;28;20064;-62
2021/08/04 04:44:17;;;;;;;15.48;8.90;;;;;;;12.33;88.30;101531.84;5054312;28;20029;-68
2021/08/04 04:46:42;;;;;;;14.18;9.70;;;;;;;12.33;88.28;101534.50;5054349;28;20033;-62
2021/08/04 04:49:07;;;;;;;16.42;10.40;;;;;;;12.37;88.61;101541.41;5054185;28;20517;-63
2021/08/04 04:51:33;;;;;;;14.05;8.65;;;;;;;12.42;88.21;101538.56;5054831;28;20029;-62
2021/08/04 04:53:58;;;;;;;13.45;8.60;;;;;;;12.44;87.81;101537.56;5053737;28;20021;-62
2021/08/04 04:56:24;;;;;;;14.38;8.73;;;;;;;12.48;87.82;101533.00;5054044;28;20122;-64
2021/08/04 04:58:50;;;;;;;13.93;9.57;;;;;;;12.50;87.91;101541.75;5054675;28;20028;-62
2021/08/04 05:01:15;;;;;;;14.27;9.48;;;;;;;12.56;88.07;101541.50;5054114;28;20049;-62
2021/08/04 05:03:40;;;;;;;14.15;9.40;;;;;;;12.60;87.66;101543.09;5054668;28;20040;-63
2021/08/04 05:06:05;;;;;;;16.42;10.02;;;;;;;12.60;87.46;101535.13;5050570;28;20044;-62
2021/08/04 05:08:31;;;;;;;17.23;10.20;;;;;;;12.63;87.74;101536.78;5053435;28;20052;-62
2021/08/04 05:10:56;;;;;;;14.43;9.38;;;;;;;12.60;87.91;101540.44;5053410;28;20102;-63
2021/08/04 05:13:21;;;;;;;13.32;9.30;;;;;;;12.64;88.14;101542.97;5053919;28;20017;-62
2021/08/04 05:15:47;;;;;;;14.25;9.68;;;;;;;12.64;88.17;101535.84;5049614;28;20108;-60
2021/08/04 05:18:12;;;;;;;15.20;10.07;;;;;;;12.69;88.19;101546.31;5049550;28;20387;-62
2021/08/04 05:20:37;;;;;;;15.77;10.40;;;;;;;12.72;88.64;101540.84;5054345;28;20055;-65
2021/08/04 05:23:03;;;;;;;14.57;9.77;;;;;;;12.80;88.46;101546.72;5054394;28;20024;-63
2021/08/04 05:25:28;;;;;;;16.63;10.02;;;;;;;12.87;88.28;101542.84;5054218;28;20459;-67
2021/08/04 05:27:54;;;;;;;17.23;9.63;;;;;;;12.98;88.07;101554.81;5053692;28;20466;-65
2021/08/04 05:30:19;;;;;;;13.98;9.50;;;;;;;13.03;87.81;101540.41;5045403;28;20437;-64
2021/08/04 05:32:45;;;;;;;14.70;8.80;;;;;;;13.15;87.50;101551.44;5053627;28;20104;-67
2021/08/04 05:35:11;;;;;;;11.88;8.55;;;;;;;13.24;87.19;101551.84;5052918;28;20108;-61
2021/08/04 05:37:36;;;;;;;15.45;9.20;;;;;;;13.32;86.75;101561.31;5053756;28;20029;-63
2021/08/04 05:40:03;;;;;;;14.85;9.18;;;;;;;13.33;86.77;101563.88;5054244;28;20075;-67
2021/08/04 05:42:28;;;;;;;13.45;9.30;;;;;;;13.41;87.07;101561.78;5053922;28;20035;-66
2021/08/04 05:44:53;;;;;;;15.43;9.73;;;;;;;13.50;86.50;101562.28;5052988;28;20029;-63
2021/08/04 05:47:19;;;;;;;15.25;10.10;;;;;;;13.57;86.28;101563.75;5053219;28;20454;-60
2021/08/04 05:49:44;;;;;;;14.93;9.77;;;;;;;13.69;86.11;101555.19;5052406;28;20024;-69
2021/08/04 05:52:10;;;;;;;14.20;9.60;;;;;;;13.80;85.82;101554.69;5052889;28;20025;-65
2021/08/04 05:54:35;;;;;;;14.77;9.65;;;;;;;13.92;85.49;101561.22;5053588;28;20020;-67
2021/08/04 05:57:01;;;;;;;14.85;9.07;;;;;;;14.03;85.45;101552.75;5053638;28;20116;-66
2021/08/04 05:59:26;;;;;;;14.70;9.55;;;;;;;14.18;84.58;101557.34;5052406;28;20068;-62
2021/08/04 06:01:51;;;;;;;14.98;8.80;;;;;;;14.31;84.37;101562.94;5053305;28;20032;-66
2021/08/04 06:04:17;;;;;;;14.73;9.07;;;;;;;14.47;84.17;101563.00;5049470;28;20028;-60
2021/08/04 06:06:42;;;;;;;14.02;10.15;;;;;;;14.50;83.07;101565.53;5042967;28;20487;-62
2021/08/04 06:09:07;;;;;;;15.75;10.02;;;;;;;14.61;83.15;101564.16;5051642;28;20032;-63
2021/08/04 06:11:33;;;;;;;15.43;9.30;;;;;;;14.74;82.64;101566.16;5053304;28;20033;-67
2021/08/04 06:13:58;;;;;;;13.80;9.40;;;;;;;14.85;82.11;101570.06;5053127;28;20036;-68
2021/08/04 06:16:24;;;;;;;14.35;9.15;;;;;;;14.87;81.97;101569.03;5048518;28;20471;-64
2021/08/04 06:18:49;;;;;;;14.50;9.45;;;;;;;14.93;81.93;101573.19;5048640;28;20025;-59
2021/08/04 06:21:14;;;;;;;14.35;9.73;;;;;;;15.02;81.60;101567.38;5048298;28;20029;-64
2021/08/04 06:23:40;;;;;;;13.07;9.35;;;;;;;15.06;80.84;101571.63;5048003;28;20068;-62
2021/08/04 06:26:05;;;;;;;18.73;10.02;;;;;;;15.15;80.63;101570.25;5048525;28;20040;-67
2021/08/04 06:28:30;;;;;;;13.73;9.35;;;;;;;15.24;80.47;101561.78;5047924;28;20094;-63
2021/08/04 06:30:56;;;;;;;13.48;9.23;;;;;;;15.37;80.20;101569.13;5047902;28;20102;-63
2021/08/04 06:33:21;;;;;;;12.90;9.50;;;;;;;15.42;80.40;101563.56;5047592;28;20029;-61
2021/08/04 06:35:46;;;;;;;14.00;9.48;;;;;;;15.53;78.83;101563.84;5048090;28;20032;-61
2021/08/04 06:38:12;;;;;;;14.20;9.77;;;;;;;15.53;79.34;101563.84;5047551;28;20104;-61
2021/08/04 06:40:37;;;;;;;14.00;9.80;;;;;;;15.62;79.17;101567.81;5047998;28;20025;-65
2021/08/04 06:43:02;;;;;;;13.93;9.93;;;;;;;15.66;78.95;101562.22;5045862;28;20037;-64
2021/08/04 06:45:28;;;;;;;16.10;9.70;;;;;;;15.77;78.22;101556.28;5047205;28;20024;-61
2021/08/04 06:47:53;;;;;;;15.65;11.23;;;;;;;15.91;77.83;101560.03;5046749;28;20124;-62
2021/08/04 06:50:18;;;;;;;16.13;10.60;;;;;;;15.96;78.44;101563.28;5046082;28;20106;-60
2021/08/04 06:52:44;;;;;;;14.38;10.63;;;;;;;16.02;78.13;101562.94;5046740;28;20112;-61
2021/08/04 06:55:09;;;;;;;16.60;12.10;;;;;;;16.12;77.83;101564.16;5047104;28;20166;-64
2021/08/04 06:57:35;;;;;;;16.67;11.40;;;;;;;16.22;76.96;101562.69;5046655;28;20044;-62
2021/08/04 07:00:00;;;;;;;17.52;11.13;;;;;;;16.29;76.89;101565.00;5046382;28;20041;-62
2021/08/04 07:02:25;;;;;;;18.00;11.60;;;;;;;16.31;76.30;101563.13;5046867;28;20027;-62
2021/08/04 07:04:51;;;;;;;18.45;11.23;;;;;;;16.36;76.51;101559.22;5045951;28;20020;-62
2021/08/04 07:07:16;;;;;;;18.38;11.63;;;;;;;16.43;76.25;101558.88;5047075;28;20391;-61
2021/08/04 07:09:42;;;;;;;14.27;10.77;;;;;;;16.54;74.81;101570.66;5045164;28;20033;-63
2021/08/04 07:12:08;;;;;;;16.67;10.75;;;;;;;16.57;74.28;101571.44;5046936;28;20456;-62
2021/08/04 07:14:34;;;;;;;18.92;11.18;;;;;;;16.60;74.28;101565.91;5046970;28;20581;-62
2021/08/04 07:17:01;;;;;;;16.90;10.55;;;;;;;16.69;74.44;101570.72;5046882;28;20061;-64
2021/08/04 07:19:26;;;;;;;16.90;10.30;;;;;;;16.77;72.92;101580.97;5047201;28;20136;-62
2021/08/04 07:21:52;;;;;;;15.13;10.18;;;;;;;16.84;72.36;101574.28;5047273;28;20126;-62
2021/08/04 07:24:17;;;;;;;15.30;10.00;;;;;;;16.96;72.40;101573.59;5047243;28;20220;-61
2021/08/04 07:26:43;;;;;;;13.38;8.88;;;;;;;17.09;71.36;101568.34;5046795;28;20051;-61
2021/08/04 07:29:09;;;;;;;14.15;9.43;;;;;;;17.17;71.90;101568.75;5044018;28;20033;-61
2021/08/04 07:31:35;;;;;;;17.60;9.70;;;;;;;17.20;71.68;101573.06;5040431;28;20056;-60
2021/08/04 07:34:01;;;;;;;11.50;8.85;;;;;;;17.27;70.82;101573.53;5037974;28;20115;-63
2021/08/04 07:36:26;;;;;;;14.93;8.90;;;;;;;17.41;71.92;101572.69;5046037;28;20219;-64
2021/08/04 07:38:52;;;;;;;11.75;7.43;;;;;;;17.49;69.15;101565.03;5044681;28;20075;-62
2021/08/04 07:41:17;;;;;;;11.55;6.85;;;;;;;17.49;67.97;101570.38;5045596;28;20021;-61
2021/08/04 07:43:44;;;;;;;11.10;7.20;;;;;;;17.47;68.57;101566.97;5028793;28;20479;-60
2021/08/04 07:46:10;;;;;;;9.27;6.47;;;;;;;17.53;68.12;101566.56;5045248;28;20052;-62
2021/08/04 07:48:35;;;;;;;10.73;6.47;;;;;;;17.53;67.58;101569.22;5046215;28;20025;-63
2021/08/04 07:51:04;;;;;;;8.95;6.38;;;;;;;17.60;67.38;101567.91;5045816;28;20063;-62
2021/08/04 07:53:30;;;;;;;9.15;5.68;;;;;;;17.76;67.05;101566.91;5040928;28;20113;-64
2021/08/04 07:55:56;;;;;;;8.50;5.82;;;;;;;17.80;66.84;101569.31;5046149;28;20029;-63
2021/08/04 07:58:22;;;;;;;11.40;6.38;;;;;;;17.92;66.39;101564.13;5046932;28;20455;-61
2021/08/04 08:00:47;;;;;;;11.02;6.25;;;;;;;17.91;65.98;101568.63;5045907;28;20410;-60
2021/08/04 08:03:13;;;;;;;10.43;6.20;;;;;;;17.99;65.30;101561.00;5047046;28;20047;-62
2021/08/04 08:05:38;;;;;;;7.93;5.82;;;;;;;18.12;66.35;101557.50;5047111;28;20029;-66
2021/08/04 08:08:04;;;;;;;11.43;6.70;;;;;;;18.23;64.96;101554.97;5037551;28;20044;-64
2021/08/04 08:10:31;;;;;;;8.95;6.97;;;;;;;18.37;63.58;101550.53;5041278;28;20025;-61
2021/08/04 08:12:57;;;;;;;11.20;8.35;;;;;;;18.43;64.14;101555.50;5042552;28;20029;-62
2021/08/04 08:15:22;;;;;;;12.68;8.82;;;;;;;18.60;63.82;101547.16;5046209;28;20032;-62
2021/08/04 08:17:48;;;;;;;10.23;6.63;;;;;;;18.74;62.78;101554.25;5047091;28;20362;-61
2021/08/04 08:20:14;;;;;;;10.10;5.60;;;;;;;18.79;62.49;101543.22;5047132;28;20033;-67
2021/08/04 08:22:40;;;;;;;9.18;4.60;;;;;;;18.85;61.90;101542.81;5044941;28;20199;-63
2021/08/04 08:25:06;;;;;;;6.70;4.38;;;;;;;18.90;62.06;101539.81;5036880;28;20175;-66
2021/08/04 08:27:32;;;;;;;9.35;4.82;;;;;;;18.99;61.23;101544.56;5027428;28;20113;-63
2021/08/04 08:29:57;;;;;;;8.40;5.07;;;;;;;19.03;62.29;101535.34;5047844;28;20097;-62
2021/08/04 08:32:26;;;;;;;8.07;4.90;;;;;;;19.08;62.89;101535.88;5050081;28;20108;-69
2021/08/04 08:34:52;;;;;;;9.02;4.25;;;;;;;19.26;60.76;101540.91;5043549;28;20383;-64
2021/08/04 08:37:17;;;;;;;6.05;4.03;;;;;;;19.35;59.28;101544.75;5049522;28;20106;-65
2021/08/04 08:39:42;;;;;;;6.10;3.67;;;;;;;19.41;56.46;101541.66;5049026;28;20064;-66
2021/08/04 08:42:08;;;;;;;8.27;3.65;;;;;;;19.36;57.13;101535.75;5049904;28;20081;-72
2021/08/04 08:44:33;;;;;;;8.65;3.92;;;;;;;19.41;56.93;101536.28;5044558;28;20351;-64
2021/08/04 08:46:59;;;;;;;7.03;3.72;;;;;;;19.48;56.94;101540.25;5050093;28;20033;-63
2021/08/04 08:49:28;;;;;;;10.50;4.60;;;;;;;19.65;56.68;101537.22;5048511;28;20385;-63
2021/08/04 08:51:55;;;;;;;8.20;4.30;;;;;;;19.69;57.02;101545.91;5049640;28;20025;-61
2021/08/04 08:54:21;;;;;;;8.00;5.20;;;;;;;19.82;56.61;101532.44;5049514;28;20121;-62
2021/08/04 08:56:47;;;;;;;9.00;5.18;;;;;;;20.91;54.42;101539.56;5050863;28;20078;-63
2021/08/04 08:59:15;;;;;;;7.78;4.60;;;;;;;22.46;50.41;101531.72;5049135;28;20029;-61
2021/08/04 09:01:41;;;;;;;6.60;3.85;;;;;;;23.65;43.71;101527.69;5047689;28;20350;-63
2021/08/04 09:04:10;;;;;;;5.50;3.38;;;;;;;24.76;39.54;101534.81;5049755;28;20033;-62
2021/08/04 09:06:47;;;;;;;7.68;4.15;;;;;;;25.44;38.63;101534.63;5049416;28;20047;-65
2021/08/04 09:09:20;;;;;;;7.53;4.38;;;;;;;25.75;39.01;101530.75;5046687;28;20051;-70
2021/08/04 09:11:48;;;;;;;9.15;4.90;;;;;;;26.23;39.02;101524.19;5030987;28;20110;-65
2021/08/04 09:14:13;;;;;;;7.45;5.05;;;;;;;26.57;37.39;101519.88;5044315;28;20036;-63
2021/08/04 09:16:39;;;;;;;8.18;5.03;;;;;;;27.38;35.89;101517.84;5044580;28;20029;-62
2021/08/04 09:19:18;;;;;;;9.60;5.63;;;;;;;27.32;36.29;101519.38;5046586;28;20108;-68
2021/08/04 09:21:44;;;;;;;10.13;6.75;;;;;;;27.06;36.73;101520.25;5048742;28;20059;-64
2021/08/04 09:24:09;;;;;;;10.75;5.45;;;;;;;27.51;37.92;101518.28;5047545;28;20089;-64
2021/08/04 09:26:39;;;;;;;11.70;7.18;;;;;;;27.41;35.58;101521.13;5049086;28;20445;-66
2021/08/04 09:29:06;;;;;;;11.60;6.70;;;;;;;27.30;37.10;101515.94;5049543;28;20040;-71
2021/08/04 09:31:44;;;;;;;10.63;6.80;;;;;;;27.74;36.82;101517.69;5048714;28;20040;-64
2021/08/04 09:34:39;;;;;;;10.82;6.75;;;;;;;27.54;37.18;101517.94;5049018;28;20059;-63
2021/08/04 09:37:11;;;;;;;8.27;5.53;;;;;;;26.90;38.05;101531.03;5046940;28;20040;-67
2021/08/04 09:39:39;;;;;;;8.40;5.40;;;;;;;27.00;36.39;101520.91;5048152;28;20086;-64
2021/08/04 09:42:05;;;;;;;9.10;5.50;;;;;;;27.61;35.51;101524.44;5048092;28;20132;-69
2021/08/04 09:44:31;;;;;;;7.63;5.43;;;;;;;27.77;35.70;101517.34;5048933;28;20355;-63
2021/08/04 09:47:06;;;;;;;8.98;5.18;;;;;;;28.53;34.81;101520.88;5048403;28;20347;-64
2021/08/04 09:49:32;;;;;;;12.00;7.47;;;;;;;27.85;34.83;101516.50;5049002;28;20041;-64
2021/08/04 09:52:09;;;;;;;10.48;7.38;;;;;;;27.08;35.55;101512.78;5047639;28;20045;-62
2021/08/04 09:54:52;;;;;;;9.45;6.45;;;;;;;25.65;37.16;101512.69;5048456;28;20045;-62
2021/08/04 09:57:18;;;;;;;9.02;6.82;;;;;;;25.19;39.40;101512.59;5048483;28;20033;-65
2021/08/04 10:00:10;;;;;;;12.45;7.47;;;;;;;24.32;40.96;101513.59;5047894;28;20103;-62
2021/08/04 10:02:36;;;;;;;10.95;6.80;;;;;;;24.07;41.64;101517.69;5048391;28;20033;-63
2021/08/04 10:05:15;;;;;;;12.07;8.32;;;;;;;23.73;40.88;101521.59;5048456;28;20024;-63
2021/08/04 10:08:11;;;;;;;10.70;6.90;;;;;;;24.29;41.10;101519.28;5047588;28;20044;-63
2021/08/04 10:10:45;;;;;;;10.80;7.45;;;;;;;24.14;41.43;101508.03;4985667;28;20042;-61
2021/08/04 10:13:16;;;;;;;13.20;6.65;;;;;;;23.76;42.46;101512.34;4987088;28;20110;-63
2021/08/04 10:15:44;;;;;;;10.13;6.63;;;;;;;23.38;43.20;101512.13;4986004;28;20119;-62
2021/08/04 10:18:17;;;;;;;9.90;6.40;;;;;;;23.37;43.12;101516.66;4986250;28;20121;-62
2021/08/04 10:20:44;;;;;;;10.43;6.38;;;;;;;23.13;45.28;101518.78;4984980;28;20363;-61
2021/08/04 10:23:14;;;;;;;11.00;7.15;;;;;;;23.05;44.07;101508.66;4987275;28;20391;-62
2021/08/04 10:25:41;;;;;;;11.25;6.82;;;;;;;23.04;44.62;101517.75;4987521;28;20109;-62
2021/08/04 10:28:07;;;;;;;9.18;6.20;;;;;;;23.02;44.83;101515.19;4986347;28;20053;-62
2021/08/04 10:30:33;;;;;;;9.02;5.82;;;;;;;23.05;43.83;101520.31;4985257;28;20121;-60
2021/08/04 10:32:58;;;;;;;9.43;5.72;;;;;;;23.27;43.38;101513.03;4986823;28;20081;-62
2021/08/04 10:35:25;;;;;;;7.28;5.10;;;;;;;24.65;40.97;101515.00;4987370;28;20038;-62
2021/08/04 10:37:51;;;;;;;8.55;5.68;;;;;;;25.83;38.04;101503.72;4986215;28;20544;-62
2021/08/04 10:40:17;;;;;;;9.63;6.45;;;;;;;26.75;35.93;101499.00;4986262;28;20039;-62
2021/08/04 10:42:45;;;;;;;7.90;5.70;;;;;;;27.75;34.59;101511.22;4986209;28;20035;-63
2021/08/04 10:45:28;;;;;;;7.78;5.22;;;;;;;28.31;33.89;101508.78;4986141;28;20502;-64
2021/08/04 10:47:57;;;;;;;9.18;5.78;;;;;;;28.26;33.99;101503.84;5040165;28;20100;-63
2021/08/04 10:50:23;;;;;;;9.52;6.38;;;;;;;28.30;32.46;101496.19;5048534;28;20097;-62
2021/08/04 10:52:57;;;;;;;8.27;6.30;;;;;;;28.87;31.92;101495.28;5048323;28;20025;-60
2021/08/04 10:55:27;;;;;;;7.70;6.35;;;;;;;29.03;31.63;101501.72;5048533;28;20481;-62
2021/08/04 10:58:04;;;;;;;10.35;6.95;;;;;;;28.49;32.70;101496.84;5047176;28;20032;-61
2021/08/04 11:00:29;;;;;;;9.05;5.65;;;;;;;29.08;33.24;101491.13;5050014;28;20347;-61
2021/08/04 11:02:55;;;;;;;9.05;5.65;;;;;;;29.54;33.21;101483.16;5050193;28;20032;-61
2021/08/04 11:05:20;;;;;;;7.72;5.95;;;;;;;29.48;32.25;101489.31;5047983;28;20031;-60
2021/08/04 11:08:23;;;;;;;9.20;6.22;;;;;;;29.56;30.48;101480.25;5046941;28;20021;-61
2021/08/04 11:10:49;;;;;;;6.55;4.85;;;;;;;29.69;32.33;101471.47;5048477;28;20036;-59
2021/08/04 11:13:48;;;;;;;8.98;5.88;;;;;;;29.61;31.30;101482.44;5047863;28;20149;-62
2021/08/04 11:16:30;;;;;;;7.47;5.22;;;;;;;29.99;30.88;101472.50;5034513;28;20082;-61
2021/08/04 11:19:09;;;;;;;8.10;4.72;;;;;;;30.40;30.79;101477.59;5049022;28;20021;-62